createdAt,value
2018-04-26T00:00:27.495Z,10.71
2018-04-26T00:01:27.477Z,10.69
2018-04-26T00:02:27.453Z,10.57
2018-04-26T00:03:27.430Z,10.68
2018-04-26T00:04:27.416Z,10.65
2018-04-26T00:05:27.396Z,10.61
2018-04-26T00:06:27.375Z,10.55
2018-04-26T00:07:27.349Z,10.79
2018-04-26T00:08:27.328Z,10.69
2018-04-26T00:09:27.311Z,10.58
2018-04-26T00:10:27.291Z,10.59
2018-04-26T00:11:27.265Z,10.53
2018-04-26T00:12:27.244Z,10.53
2018-04-26T00:13:27.223Z,10.46
2018-04-26T00:14:27.201Z,10.46
2018-04-26T00:15:27.183Z,10.51
2018-04-26T00:16:27.178Z,10.57
2018-04-26T00:17:27.163Z,10.53
2018-04-26T00:18:27.117Z,10.61
2018-04-26T00:19:27.105Z,10.61
2018-04-26T00:20:27.077Z,10.61
2018-04-26T00:21:27.056Z,10.55
2018-04-26T00:22:27.042Z,10.55
2018-04-26T00:23:27.019Z,10.59
2018-04-26T00:24:27.001Z,10.61
2018-04-26T00:25:26.974Z,10.72
2018-04-26T00:26:26.952Z,10.76
2018-04-26T00:27:26.934Z,10.71
2018-04-26T00:28:26.909Z,10.77
2018-04-26T00:29:26.889Z,10.67
2018-04-26T00:30:26.872Z,10.68
2018-04-26T00:31:26.845Z,10.69
2018-04-26T00:32:26.829Z,10.68
2018-04-26T00:33:26.807Z,10.80
2018-04-26T00:34:26.791Z,10.77
2018-04-26T00:35:26.764Z,10.84
2018-04-26T00:36:26.742Z,10.82
2018-04-26T00:37:26.721Z,10.89
2018-04-26T00:38:26.698Z,10.79
2018-04-26T00:39:26.679Z,10.77
2018-04-26T00:40:26.661Z,10.75
2018-04-26T00:41:26.635Z,10.75
2018-04-26T00:42:26.615Z,10.79
2018-04-26T00:43:26.593Z,10.77
2018-04-26T00:44:26.576Z,10.79
2018-04-26T00:45:26.554Z,10.75
2018-04-26T00:46:26.540Z,10.79
2018-04-26T00:47:26.509Z,10.75
2018-04-26T00:48:26.490Z,10.68
2018-04-26T00:49:26.476Z,10.75
2018-04-26T00:50:26.447Z,10.77
2018-04-26T00:51:26.428Z,10.86
2018-04-26T00:52:26.410Z,10.87
2018-04-26T00:53:26.386Z,10.87
2018-04-26T00:54:26.362Z,10.89
2018-04-26T00:55:26.341Z,10.84
2018-04-26T00:56:26.334Z,10.87
2018-04-26T00:57:26.305Z,10.90
2018-04-26T00:58:26.282Z,10.92
2018-04-26T00:59:26.261Z,10.98
2018-04-26T01:00:26.244Z,10.95
2018-04-26T01:01:26.217Z,10.95
2018-04-26T01:02:26.195Z,10.98
2018-04-26T01:03:26.182Z,10.92
2018-04-26T01:04:26.153Z,10.87
2018-04-26T01:05:26.134Z,10.84
2018-04-26T01:06:26.112Z,10.89
2018-04-26T01:07:26.100Z,10.83
2018-04-26T01:08:26.074Z,10.86
2018-04-26T01:09:26.049Z,10.89
2018-04-26T01:10:26.035Z,10.94
2018-04-26T01:11:26.017Z,10.94
2018-04-26T01:12:25.985Z,10.87
2018-04-26T01:13:25.965Z,10.94
2018-04-26T01:14:25.946Z,10.86
2018-04-26T01:15:25.938Z,10.89
2018-04-26T01:16:25.902Z,10.86
2018-04-26T01:17:25.881Z,10.94
2018-04-26T01:18:25.875Z,10.97
2018-04-26T01:19:25.840Z,10.94
2018-04-26T01:20:25.826Z,10.87
2018-04-26T01:21:25.815Z,10.94
2018-04-26T01:22:25.797Z,10.84
2018-04-26T01:23:25.772Z,10.87
2018-04-26T01:24:25.752Z,10.87
2018-04-26T01:25:25.714Z,10.92
2018-04-26T01:26:25.691Z,10.95
2018-04-26T01:27:25.671Z,10.92
2018-04-26T01:28:25.677Z,10.92
2018-04-26T01:29:25.645Z,10.92
2018-04-26T01:30:25.607Z,10.86
2018-04-26T01:31:25.593Z,10.89
2018-04-26T01:32:25.572Z,10.97
2018-04-26T01:33:25.579Z,10.92
2018-04-26T01:34:25.529Z,10.94
2018-04-26T01:35:25.503Z,10.87
2018-04-26T01:36:25.512Z,10.86
2018-04-26T01:37:25.466Z,10.95
2018-04-26T01:38:25.440Z,10.84
2018-04-26T01:39:25.442Z,10.87
2018-04-26T01:40:25.401Z,10.87
2018-04-26T01:41:25.396Z,10.89
2018-04-26T01:42:25.358Z,10.86
2018-04-26T01:43:25.339Z,10.86
2018-04-26T01:44:25.326Z,10.90
2018-04-26T01:45:25.296Z,10.90
2018-04-26T01:46:25.272Z,10.95
2018-04-26T01:47:25.254Z,10.89
2018-04-26T01:48:25.231Z,10.87
2018-04-26T01:49:25.210Z,10.92
2018-04-26T01:50:25.192Z,10.83
2018-04-26T01:51:25.169Z,10.86
2018-04-26T01:52:25.173Z,10.89
2018-04-26T01:53:25.131Z,10.89
2018-04-26T01:54:25.157Z,10.89
2018-04-26T01:55:25.102Z,10.92
2018-04-26T01:56:25.074Z,10.82
2018-04-26T01:57:25.044Z,10.71
2018-04-26T01:58:25.024Z,10.59
2018-04-26T01:59:25.037Z,10.57
2018-04-26T02:00:24.980Z,10.49
2018-04-26T02:01:24.971Z,10.39
2018-04-26T02:02:24.943Z,10.34
2018-04-26T02:03:24.918Z,10.25
2018-04-26T02:04:24.898Z,10.23
2018-04-26T02:05:24.880Z,10.17
2018-04-26T02:06:24.855Z,10.21
2018-04-26T02:07:24.834Z,10.18
2018-04-26T02:08:24.815Z,10.25
2018-04-26T02:09:24.796Z,10.20
2018-04-26T02:10:24.776Z,10.15
2018-04-26T02:11:24.749Z,10.13
2018-04-26T02:12:24.728Z,10.17
2018-04-26T02:13:24.716Z,10.15
2018-04-26T02:14:24.688Z,10.17
2018-04-26T02:15:24.664Z,10.09
2018-04-26T02:16:24.667Z,10.00
2018-04-26T02:17:24.624Z,10.05
2018-04-26T02:18:24.601Z,10.00
2018-04-26T02:19:24.580Z,10.18
2018-04-26T02:20:24.569Z,10.13
2018-04-26T02:21:24.544Z,10.09
2018-04-26T02:22:24.515Z,10.10
2018-04-26T02:23:24.503Z,10.13
2018-04-26T02:24:24.495Z,10.21
2018-04-26T02:25:24.453Z,10.18
2018-04-26T02:26:24.432Z,10.12
2018-04-26T02:27:24.418Z,10.18
2018-04-26T02:28:24.387Z,10.15
2018-04-26T02:29:24.369Z,10.21
2018-04-26T02:30:24.351Z,10.15
2018-04-26T02:31:24.327Z,10.12
2018-04-26T02:32:24.319Z,10.18
2018-04-26T02:33:24.286Z,10.21
2018-04-26T02:34:24.273Z,10.23
2018-04-26T02:35:24.241Z,10.21
2018-04-26T02:36:24.220Z,10.21
2018-04-26T02:37:24.202Z,10.06
2018-04-26T02:38:24.193Z,10.00
2018-04-26T02:39:24.189Z,10.10
2018-04-26T02:40:24.135Z,10.09
2018-04-26T02:41:24.114Z,10.17
2018-04-26T02:42:24.096Z,10.18
2018-04-26T02:43:24.071Z,10.18
2018-04-26T02:44:24.048Z,10.21
2018-04-26T02:45:24.034Z,10.17
2018-04-26T02:46:24.009Z,10.20
2018-04-26T02:47:23.983Z,10.21
2018-04-26T02:48:23.981Z,10.23
2018-04-26T02:49:23.948Z,10.17
2018-04-26T02:50:23.927Z,10.17
2018-04-26T02:51:23.912Z,10.20
2018-04-26T02:52:23.879Z,10.21
2018-04-26T02:53:23.869Z,10.17
2018-04-26T02:54:23.836Z,10.23
2018-04-26T02:55:23.817Z,10.25
2018-04-26T02:56:23.801Z,10.25
2018-04-26T02:57:23.773Z,10.23
2018-04-26T02:58:23.756Z,10.23
2018-04-26T02:59:23.730Z,10.23
2018-04-26T03:00:23.717Z,10.18
2018-04-26T03:01:23.705Z,10.15
2018-04-26T03:02:23.666Z,10.17
2018-04-26T03:03:23.648Z,10.23
2018-04-26T03:04:23.623Z,10.17
2018-04-26T03:05:23.606Z,10.13
2018-04-26T03:06:23.581Z,10.09
2018-04-26T03:07:23.564Z,10.17
2018-04-26T03:08:23.625Z,10.09
2018-04-26T03:09:23.542Z,10.15
2018-04-26T03:10:23.500Z,10.09
2018-04-26T03:11:23.476Z,10.00
2018-04-26T03:12:23.454Z,10.03
2018-04-26T03:13:23.433Z,10.03
2018-04-26T03:14:23.409Z,10.06
2018-04-26T03:15:23.386Z,10.06
2018-04-26T03:16:23.372Z,10.05
2018-04-26T03:17:23.349Z,10.03
2018-04-26T03:18:23.328Z,10.13
2018-04-26T03:19:23.314Z,10.10
2018-04-26T03:20:23.293Z,10.15
2018-04-26T03:21:23.261Z,10.12
2018-04-26T03:22:23.241Z,10.07
2018-04-26T03:23:23.221Z,10.03
2018-04-26T03:24:23.199Z,10.15
2018-04-26T03:25:23.174Z,10.02
2018-04-26T03:26:23.154Z,10.02
2018-04-26T03:27:23.133Z,10.03
2018-04-26T03:28:23.111Z,9.97
2018-04-26T03:29:23.101Z,9.97
2018-04-26T03:30:23.067Z,9.92
2018-04-26T03:31:23.048Z,9.90
2018-04-26T03:32:23.025Z,9.87
2018-04-26T03:33:23.002Z,9.84
2018-04-26T03:34:22.984Z,9.88
2018-04-26T03:35:22.963Z,9.91
2018-04-26T03:36:22.941Z,9.92
2018-04-26T03:37:23.029Z,9.87
2018-04-26T03:38:22.933Z,9.92
2018-04-26T03:39:22.876Z,9.81
2018-04-26T03:40:22.854Z,9.88
2018-04-26T03:41:22.891Z,9.84
2018-04-26T03:42:22.843Z,9.92
2018-04-26T03:43:22.839Z,9.87
2018-04-26T03:44:22.785Z,9.95
2018-04-26T03:45:22.768Z,9.90
2018-04-26T03:46:22.729Z,9.81
2018-04-26T03:47:22.766Z,9.77
2018-04-26T03:48:22.698Z,9.90
2018-04-26T03:49:22.694Z,9.85
2018-04-26T03:50:22.641Z,9.69
2018-04-26T03:51:22.646Z,9.76
2018-04-26T03:52:22.615Z,9.73
2018-04-26T03:53:22.580Z,9.72
2018-04-26T03:54:22.640Z,9.82
2018-04-26T03:55:22.600Z,9.80
2018-04-26T03:56:22.507Z,9.80
2018-04-26T03:57:22.488Z,9.74
2018-04-26T03:58:22.520Z,9.82
2018-04-26T03:59:22.490Z,9.77
2018-04-26T04:00:22.421Z,9.77
2018-04-26T04:01:22.405Z,9.84
2018-04-26T04:02:22.376Z,9.77
2018-04-26T04:03:22.390Z,9.82
2018-04-26T04:04:22.339Z,9.82
2018-04-26T04:05:22.313Z,9.74
2018-04-26T04:06:22.290Z,9.74
2018-04-26T04:07:22.269Z,9.74
2018-04-26T04:08:22.280Z,9.80
2018-04-26T04:09:22.228Z,9.72
2018-04-26T04:10:22.203Z,9.69
2018-04-26T04:11:22.183Z,9.84
2018-04-26T04:12:22.160Z,9.77
2018-04-26T04:13:22.140Z,9.84
2018-04-26T04:14:22.150Z,9.84
2018-04-26T04:15:22.094Z,9.82
2018-04-26T04:16:22.075Z,9.80
2018-04-26T04:17:22.053Z,9.77
2018-04-26T04:18:22.055Z,9.73
2018-04-26T04:19:22.009Z,9.62
2018-04-26T04:20:22.015Z,9.55
2018-04-26T04:21:21.968Z,9.42
2018-04-26T04:22:21.947Z,9.52
2018-04-26T04:23:21.924Z,9.45
2018-04-26T04:24:21.901Z,9.49
2018-04-26T04:25:21.880Z,9.54
2018-04-26T04:26:21.860Z,9.51
2018-04-26T04:27:21.835Z,9.49
2018-04-26T04:28:21.820Z,9.47
2018-04-26T04:29:21.965Z,9.49
2018-04-26T04:30:21.811Z,9.47
2018-04-26T04:31:21.843Z,9.49
2018-04-26T04:32:21.730Z,9.51
2018-04-26T04:33:22.650Z,9.54
2018-04-26T04:34:21.684Z,9.45
2018-04-26T04:35:21.718Z,9.47
2018-04-26T04:36:21.646Z,9.47
2018-04-26T04:37:21.621Z,9.44
2018-04-26T04:38:21.630Z,9.42
2018-04-26T04:39:21.576Z,9.48
2018-04-26T04:40:21.555Z,9.40
2018-04-26T04:41:21.536Z,9.47
2018-04-26T04:42:21.511Z,9.44
2018-04-26T04:43:21.494Z,9.45
2018-04-26T04:44:21.468Z,9.37
2018-04-26T04:45:21.454Z,9.42
2018-04-26T04:46:21.425Z,9.39
2018-04-26T04:47:21.406Z,9.45
2018-04-26T04:48:21.383Z,9.42
2018-04-26T04:49:21.361Z,9.36
2018-04-26T04:50:21.337Z,9.42
2018-04-26T04:51:21.320Z,9.42
2018-04-26T04:52:24.155Z,9.42
2018-04-26T04:53:21.273Z,9.42
2018-04-26T04:54:21.262Z,9.45
2018-04-26T04:55:21.238Z,9.37
2018-04-26T04:56:21.220Z,9.39
2018-04-26T04:57:21.188Z,9.37
2018-04-26T04:58:21.170Z,9.37
2018-04-26T04:59:21.152Z,9.40
2018-04-26T05:00:21.192Z,9.34
2018-04-26T05:01:21.114Z,9.39
2018-04-26T05:02:21.080Z,9.31
2018-04-26T05:03:21.057Z,9.34
2018-04-26T05:04:21.044Z,9.36
2018-04-26T05:05:21.020Z,9.33
2018-04-26T05:06:21.004Z,9.39
2018-04-26T05:07:21.018Z,9.27
2018-04-26T05:08:20.949Z,9.21
2018-04-26T05:09:20.926Z,9.18
2018-04-26T05:10:20.907Z,9.26
2018-04-26T05:11:20.882Z,9.24
2018-04-26T05:12:20.862Z,9.21
2018-04-26T05:13:20.848Z,9.21
2018-04-26T05:14:20.837Z,9.27
2018-04-26T05:15:20.888Z,9.29
2018-04-26T05:16:20.827Z,9.19
2018-04-26T05:17:20.787Z,9.21
2018-04-26T05:18:20.739Z,9.22
2018-04-26T05:19:20.790Z,9.27
2018-04-26T05:20:20.687Z,9.22
2018-04-26T05:21:20.667Z,9.19
2018-04-26T05:22:20.648Z,9.19
2018-04-26T05:23:20.623Z,9.18
2018-04-26T05:24:20.600Z,9.08
2018-04-26T05:25:20.577Z,9.12
2018-04-26T05:26:20.556Z,9.11
2018-04-26T05:27:20.536Z,9.11
2018-04-26T05:28:20.519Z,9.08
2018-04-26T05:29:20.493Z,9.12
2018-04-26T05:30:20.468Z,9.12
2018-04-26T05:31:20.446Z,9.19
2018-04-26T05:32:20.426Z,9.16
2018-04-26T05:33:20.402Z,9.22
2018-04-26T05:34:20.381Z,9.22
2018-04-26T05:35:20.364Z,9.19
2018-04-26T05:36:20.335Z,9.29
2018-04-26T05:37:20.314Z,9.31
2018-04-26T05:38:20.296Z,9.39
2018-04-26T05:39:20.276Z,9.34
2018-04-26T05:40:20.249Z,9.39
2018-04-26T05:41:20.227Z,9.40
2018-04-26T05:42:20.208Z,9.42
2018-04-26T05:43:20.182Z,9.44
2018-04-26T05:44:20.162Z,9.39
2018-04-26T05:45:20.145Z,9.47
2018-04-26T05:46:20.115Z,9.49
2018-04-26T05:47:20.115Z,9.48
2018-04-26T05:48:20.073Z,9.49
2018-04-26T05:49:20.051Z,9.55
2018-04-26T05:50:20.030Z,9.64
2018-04-26T05:51:20.014Z,9.67
2018-04-26T05:52:19.994Z,9.70
2018-04-26T05:53:19.965Z,9.70
2018-04-26T05:54:19.946Z,9.67
2018-04-26T05:55:19.920Z,9.72
2018-04-26T05:56:19.909Z,9.72
2018-04-26T05:57:19.887Z,9.72
2018-04-26T05:58:19.857Z,9.73
2018-04-26T05:59:19.859Z,9.73
2018-04-26T06:00:19.812Z,9.80
2018-04-26T06:01:19.792Z,9.66
2018-04-26T06:02:19.774Z,9.67
2018-04-26T06:03:19.753Z,9.70
2018-04-26T06:04:19.731Z,9.72
2018-04-26T06:05:19.707Z,9.72
2018-04-26T06:06:19.681Z,9.76
2018-04-26T06:07:19.662Z,9.63
2018-04-26T06:08:19.646Z,9.72
2018-04-26T06:09:19.617Z,9.73
2018-04-26T06:10:19.595Z,9.74
2018-04-26T06:11:19.654Z,9.70
2018-04-26T06:12:19.553Z,9.70
2018-04-26T06:13:19.529Z,9.74
2018-04-26T06:14:19.516Z,9.76
2018-04-26T06:15:19.491Z,9.73
2018-04-26T06:16:19.463Z,9.76
2018-04-26T06:17:19.443Z,9.73
2018-04-26T06:18:19.421Z,9.77
2018-04-26T06:19:19.398Z,9.85
2018-04-26T06:20:19.378Z,9.82
2018-04-26T06:21:19.358Z,9.90
2018-04-26T06:22:19.338Z,9.90
2018-04-26T06:23:19.315Z,9.85
2018-04-26T06:24:19.292Z,9.90
2018-04-26T06:25:19.272Z,9.80
2018-04-26T06:26:19.248Z,9.87
2018-04-26T06:27:19.227Z,9.91
2018-04-26T06:28:19.206Z,9.76
2018-04-26T06:29:19.189Z,9.77
2018-04-26T06:30:19.169Z,9.91
2018-04-26T06:31:19.141Z,9.90
2018-04-26T06:32:19.120Z,9.73
2018-04-26T06:33:19.104Z,9.76
2018-04-26T06:34:19.084Z,9.81
2018-04-26T06:35:19.055Z,9.81
2018-04-26T06:36:19.034Z,9.72
2018-04-26T06:37:19.018Z,9.84
2018-04-26T06:38:18.991Z,9.84
2018-04-26T06:39:18.979Z,9.84
2018-04-26T06:40:18.945Z,9.87
2018-04-26T06:41:18.930Z,9.90
2018-04-26T06:42:18.912Z,9.99
2018-04-26T06:43:18.883Z,9.90
2018-04-26T06:44:18.862Z,10.03
2018-04-26T06:45:18.841Z,10.02
2018-04-26T06:46:18.816Z,10.00
2018-04-26T06:47:18.796Z,10.10
2018-04-26T06:48:18.775Z,9.99
2018-04-26T06:49:18.754Z,9.99
2018-04-26T06:50:18.731Z,10.07
2018-04-26T06:51:18.707Z,10.21
2018-04-26T06:52:18.686Z,10.15
2018-04-26T06:53:18.666Z,10.17
2018-04-26T06:54:18.647Z,10.21
2018-04-26T06:55:18.631Z,10.28
2018-04-26T06:56:18.601Z,10.24
2018-04-26T06:57:18.580Z,10.21
2018-04-26T06:58:18.561Z,10.27
2018-04-26T06:59:18.535Z,10.21
2018-04-26T07:00:18.513Z,10.17
2018-04-26T07:01:18.493Z,10.21
2018-04-26T07:02:18.476Z,10.07
2018-04-26T07:03:18.449Z,10.03
2018-04-26T07:04:18.428Z,10.13
2018-04-26T07:05:18.406Z,10.17
2018-04-26T07:06:18.384Z,10.17
2018-04-26T07:07:18.364Z,10.28
2018-04-26T07:08:18.341Z,10.25
2018-04-26T07:09:18.321Z,10.21
2018-04-26T07:10:18.296Z,10.33
2018-04-26T07:11:18.281Z,10.36
2018-04-26T07:12:18.262Z,10.45
2018-04-26T07:13:18.236Z,10.49
2018-04-26T07:14:18.223Z,10.55
2018-04-26T07:15:18.189Z,10.61
2018-04-26T07:16:18.171Z,10.67
2018-04-26T07:17:18.148Z,10.75
2018-04-26T07:18:18.125Z,10.79
2018-04-26T07:19:18.104Z,10.84
2018-04-26T07:20:18.083Z,10.76
2018-04-26T07:21:18.062Z,10.77
2018-04-26T07:22:18.040Z,10.82
2018-04-26T07:23:18.021Z,10.77
2018-04-26T07:24:18.009Z,10.67
2018-04-26T07:25:17.978Z,10.69
2018-04-26T07:26:17.958Z,10.76
2018-04-26T07:27:17.958Z,10.80
2018-04-26T07:28:17.915Z,10.86
2018-04-26T07:29:17.918Z,10.95
2018-04-26T07:30:17.879Z,10.98
2018-04-26T07:31:17.905Z,10.98
2018-04-26T07:32:17.841Z,11.01
2018-04-26T07:33:17.850Z,10.97
2018-04-26T07:34:17.786Z,10.97
2018-04-26T07:35:17.766Z,10.95
2018-04-26T07:36:17.747Z,11.00
2018-04-26T07:37:17.726Z,11.01
2018-04-26T07:38:17.720Z,11.01
2018-04-26T07:39:17.685Z,11.01
2018-04-26T07:40:17.660Z,11.02
2018-04-26T07:41:17.642Z,11.05
2018-04-26T07:42:17.622Z,11.19
2018-04-26T07:43:17.598Z,11.19
2018-04-26T07:44:17.578Z,11.27
2018-04-26T07:45:17.557Z,11.22
2018-04-26T07:46:17.535Z,11.16
2018-04-26T07:47:17.526Z,11.26
2018-04-26T07:48:17.498Z,11.25
2018-04-26T07:49:17.482Z,11.33
2018-04-26T07:50:17.453Z,11.22
2018-04-26T07:51:17.430Z,11.25
2018-04-26T07:52:17.413Z,11.23
2018-04-26T07:53:17.390Z,11.26
2018-04-26T07:54:17.370Z,11.20
2018-04-26T07:55:17.352Z,11.20
2018-04-26T07:56:17.332Z,11.25
2018-04-26T07:57:17.312Z,11.25
2018-04-26T07:58:17.285Z,11.34
2018-04-26T07:59:17.270Z,11.37
2018-04-26T08:00:17.247Z,11.37
2018-04-26T08:01:17.229Z,11.35
2018-04-26T08:02:17.205Z,11.48
2018-04-26T08:03:17.184Z,11.51
2018-04-26T08:04:17.163Z,11.56
2018-04-26T08:05:17.142Z,11.65
2018-04-26T08:06:17.121Z,11.58
2018-04-26T08:07:17.111Z,11.73
2018-04-26T08:08:17.084Z,11.78
2018-04-26T08:09:17.068Z,11.83
2018-04-26T08:10:17.051Z,11.74
2018-04-26T08:11:17.020Z,11.77
2018-04-26T08:12:17.007Z,11.80
2018-04-26T08:13:16.999Z,11.77
2018-04-26T08:14:16.958Z,11.78
2018-04-26T08:15:16.969Z,11.68
2018-04-26T08:16:16.959Z,11.80
2018-04-26T08:17:16.905Z,11.83
2018-04-26T08:18:16.875Z,11.78
2018-04-26T08:19:16.859Z,11.85
2018-04-26T08:20:16.836Z,11.76
2018-04-26T08:21:16.815Z,11.78
2018-04-26T08:22:16.795Z,11.88
2018-04-26T08:23:16.774Z,11.91
2018-04-26T08:24:16.752Z,11.89
2018-04-26T08:25:16.732Z,12.00
2018-04-26T08:26:16.711Z,11.96
2018-04-26T08:27:16.697Z,11.99
2018-04-26T08:28:16.671Z,12.11
2018-04-26T08:29:16.650Z,12.20
2018-04-26T08:30:16.635Z,12.39
2018-04-26T08:31:16.609Z,12.53
2018-04-26T08:32:16.590Z,12.53
2018-04-26T08:33:16.569Z,12.62
2018-04-26T08:34:16.547Z,12.54
2018-04-26T08:35:16.536Z,12.54
2018-04-26T08:36:16.521Z,12.57
2018-04-26T08:37:16.488Z,12.40
2018-04-26T08:38:16.477Z,12.40
2018-04-26T08:39:16.453Z,12.43
2018-04-26T08:40:16.425Z,12.54
2018-04-26T08:41:16.414Z,12.57
2018-04-26T08:42:16.386Z,12.54
2018-04-26T08:43:16.374Z,12.48
2018-04-26T08:44:16.352Z,12.43
2018-04-26T08:45:16.326Z,12.45
2018-04-26T08:46:16.309Z,12.37
2018-04-26T08:47:16.287Z,12.40
2018-04-26T08:48:16.267Z,12.37
2018-04-26T08:49:16.245Z,12.51
2018-04-26T08:50:16.232Z,12.53
2018-04-26T08:51:16.206Z,12.55
2018-04-26T08:52:16.209Z,12.72
2018-04-26T08:53:16.172Z,12.69
2018-04-26T08:54:16.148Z,12.62
2018-04-26T08:55:16.128Z,12.57
2018-04-26T08:56:16.109Z,12.40
2018-04-26T08:57:16.101Z,12.47
2018-04-26T08:58:16.068Z,12.50
2018-04-26T08:59:16.047Z,12.54
2018-04-26T09:00:16.028Z,12.54
2018-04-26T09:01:16.007Z,12.53
2018-04-26T09:02:15.987Z,12.53
2018-04-26T09:03:15.999Z,12.48
2018-04-26T09:04:15.984Z,12.55
2018-04-26T09:05:15.938Z,12.62
2018-04-26T09:06:15.911Z,12.66
2018-04-26T09:07:15.887Z,12.68
2018-04-26T09:08:15.876Z,12.47
2018-04-26T09:09:15.858Z,12.40
2018-04-26T09:10:15.832Z,12.43
2018-04-26T09:11:15.810Z,12.44
2018-04-26T09:12:15.792Z,12.37
2018-04-26T09:13:15.786Z,12.26
2018-04-26T09:14:15.750Z,12.00
2018-04-26T09:15:15.735Z,11.83
2018-04-26T09:16:15.715Z,11.77
2018-04-26T09:17:15.691Z,11.52
2018-04-26T09:18:15.670Z,11.31
2018-04-26T09:19:15.651Z,11.13
2018-04-26T09:20:15.631Z,10.90
2018-04-26T09:21:15.612Z,10.87
2018-04-26T09:22:15.590Z,10.89
2018-04-26T09:23:15.572Z,10.92
2018-04-26T09:24:15.550Z,11.01
2018-04-26T09:25:15.532Z,11.07
2018-04-26T09:26:15.512Z,10.87
2018-04-26T09:27:15.491Z,11.01
2018-04-26T09:28:15.472Z,11.05
2018-04-26T09:29:15.449Z,11.19
2018-04-26T09:30:15.434Z,11.10
2018-04-26T09:31:15.407Z,11.18
2018-04-26T09:32:15.392Z,11.31
2018-04-26T09:33:15.368Z,11.38
2018-04-26T09:34:15.347Z,11.37
2018-04-26T09:35:15.325Z,11.31
2018-04-26T09:36:15.307Z,11.51
2018-04-26T09:37:15.288Z,11.56
2018-04-26T09:38:15.264Z,11.62
2018-04-26T09:39:15.242Z,11.68
2018-04-26T09:40:15.225Z,11.81
2018-04-26T09:41:15.210Z,12.02
2018-04-26T09:42:15.185Z,11.97
2018-04-26T09:43:15.173Z,12.17
2018-04-26T09:44:15.143Z,12.21
2018-04-26T09:45:15.123Z,12.15
2018-04-26T09:46:15.108Z,12.21
2018-04-26T09:47:15.083Z,12.43
2018-04-26T09:48:15.065Z,12.47
2018-04-26T09:49:15.041Z,12.57
2018-04-26T09:50:15.025Z,12.70
2018-04-26T09:51:15.001Z,12.69
2018-04-26T09:52:14.988Z,12.88
2018-04-26T09:53:14.965Z,12.73
2018-04-26T09:54:14.943Z,12.88
2018-04-26T09:55:14.918Z,12.95
2018-04-26T09:56:14.905Z,13.08
2018-04-26T09:57:14.878Z,12.95
2018-04-26T09:58:14.877Z,12.90
2018-04-26T09:59:14.840Z,12.88
2018-04-26T10:00:14.823Z,13.03
2018-04-26T10:01:14.799Z,13.21
2018-04-26T10:02:14.777Z,13.50
2018-04-26T10:03:14.758Z,13.55
2018-04-26T10:04:14.740Z,13.50
2018-04-26T10:05:14.766Z,13.52
2018-04-26T10:06:14.699Z,13.64
2018-04-26T10:07:14.678Z,13.60
2018-04-26T10:08:14.665Z,13.49
2018-04-26T10:09:14.641Z,13.43
2018-04-26T10:10:14.618Z,13.36
2018-04-26T10:11:14.600Z,13.19
2018-04-26T10:12:14.588Z,13.01
2018-04-26T10:13:14.565Z,12.83
2018-04-26T10:14:14.544Z,12.83
2018-04-26T10:15:14.523Z,12.84
2018-04-26T10:16:14.506Z,12.84
2018-04-26T10:17:14.495Z,12.87
2018-04-26T10:18:14.464Z,12.81
2018-04-26T10:19:14.446Z,12.58
2018-04-26T10:20:14.437Z,12.66
2018-04-26T10:21:14.433Z,12.54
2018-04-26T10:22:14.383Z,12.66
2018-04-26T10:23:14.377Z,12.81
2018-04-26T10:24:14.354Z,12.99
2018-04-26T10:25:14.325Z,13.23
2018-04-26T10:26:14.305Z,13.36
2018-04-26T10:27:14.285Z,13.60
2018-04-26T10:28:14.266Z,13.83
2018-04-26T10:29:14.249Z,14.03
2018-04-26T10:30:14.230Z,14.28
2018-04-26T10:31:14.217Z,14.77
2018-04-26T10:32:14.193Z,14.68
2018-04-26T10:33:14.174Z,14.43
2018-04-26T10:34:14.156Z,14.15
2018-04-26T10:35:14.135Z,13.86
2018-04-26T10:36:14.122Z,14.58
2018-04-26T10:37:14.112Z,14.85
2018-04-26T10:38:14.083Z,15.15
2018-04-26T10:39:14.069Z,15.27
2018-04-26T10:40:14.051Z,14.74
2018-04-26T10:41:14.030Z,14.66
2018-04-26T10:42:14.012Z,14.40
2018-04-26T10:43:13.999Z,14.94
2018-04-26T10:44:14.042Z,15.72
2018-04-26T10:45:13.968Z,15.10
2018-04-26T10:46:13.943Z,14.81
2018-04-26T10:47:13.926Z,14.38
2018-04-26T10:48:13.924Z,14.51
2018-04-26T10:49:13.899Z,14.30
2018-04-26T10:50:13.889Z,15.25
2018-04-26T10:51:13.857Z,15.29
2018-04-26T10:52:13.846Z,16.69
2018-04-26T10:53:13.825Z,17.56
2018-04-26T10:54:13.806Z,18.27
2018-04-26T10:55:13.791Z,18.74
2018-04-26T10:56:13.782Z,19.11
2018-04-26T10:57:13.762Z,20.19
2018-04-26T10:58:13.740Z,18.45
2018-04-26T10:59:13.724Z,17.73
2018-04-26T11:00:13.789Z,17.93
2018-04-26T11:01:13.697Z,18.92
2018-04-26T11:02:13.679Z,18.43
2018-04-26T11:03:13.663Z,17.98
2018-04-26T11:04:13.658Z,17.16
2018-04-26T11:05:13.632Z,16.18
2018-04-26T11:06:13.616Z,15.59
2018-04-26T11:07:13.606Z,15.15
2018-04-26T11:08:13.588Z,14.77
2018-04-26T11:09:13.640Z,14.31
2018-04-26T11:10:13.556Z,14.13
2018-04-26T11:11:13.547Z,14.03
2018-04-26T11:12:13.525Z,14.11
2018-04-26T11:13:13.511Z,14.12
2018-04-26T11:14:13.497Z,13.95
2018-04-26T11:15:13.475Z,13.93
2018-04-26T11:16:13.463Z,14.05
2018-04-26T11:17:13.450Z,15.29
2018-04-26T11:18:13.429Z,16.50
2018-04-26T11:19:13.412Z,17.93
2018-04-26T11:20:13.394Z,19.22
2018-04-26T11:21:13.406Z,19.52
2018-04-26T11:22:13.361Z,19.04
2018-04-26T11:23:13.348Z,18.66
2018-04-26T11:24:13.331Z,19.53
2018-04-26T11:25:13.321Z,20.46
2018-04-26T11:26:13.302Z,20.66
2018-04-26T11:27:13.287Z,20.78
2018-04-26T11:28:13.274Z,20.22
2018-04-26T11:29:13.347Z,20.82
2018-04-26T11:30:13.247Z,21.25
2018-04-26T11:31:13.234Z,21.51
2018-04-26T11:32:13.218Z,21.40
2018-04-26T11:33:13.209Z,19.49
2018-04-26T11:34:13.194Z,18.11
2018-04-26T11:35:13.182Z,17.63
2018-04-26T11:36:13.195Z,16.97
2018-04-26T11:37:13.159Z,16.43
2018-04-26T11:38:13.153Z,15.76
2018-04-26T11:39:13.131Z,15.55
2018-04-26T11:40:13.142Z,15.90
2018-04-26T11:41:13.106Z,17.93
2018-04-26T11:42:13.094Z,19.07
2018-04-26T11:43:13.085Z,19.09
2018-04-26T11:44:13.065Z,18.92
2018-04-26T11:45:13.055Z,17.82
2018-04-26T11:46:13.040Z,18.53
2018-04-26T11:47:13.028Z,17.52
2018-04-26T11:48:13.019Z,16.54
2018-04-26T11:49:13.002Z,15.91
2018-04-26T11:50:12.989Z,15.44
2018-04-26T11:51:12.974Z,15.07
2018-04-26T11:52:12.961Z,14.71
2018-04-26T11:53:12.949Z,14.23
2018-04-26T11:54:12.934Z,13.94
2018-04-26T11:55:12.918Z,13.64
2018-04-26T11:56:12.908Z,13.39
2018-04-26T11:57:12.890Z,13.03
2018-04-26T11:58:12.875Z,12.68
2018-04-26T11:59:12.858Z,12.51
2018-04-26T12:00:12.876Z,12.45
2018-04-26T12:01:12.826Z,12.39
2018-04-26T12:02:12.835Z,12.28
2018-04-26T12:03:12.796Z,12.12
2018-04-26T12:04:12.781Z,12.08
2018-04-26T12:05:12.762Z,12.14
2018-04-26T12:06:12.747Z,12.17
2018-04-26T12:07:12.733Z,12.20
2018-04-26T12:08:12.716Z,12.21
2018-04-26T12:09:12.699Z,12.23
2018-04-26T12:10:12.679Z,12.15
2018-04-26T12:11:12.660Z,11.96
2018-04-26T12:12:12.644Z,11.88
2018-04-26T12:13:12.637Z,11.81
2018-04-26T12:14:12.606Z,11.51
2018-04-26T12:15:12.586Z,11.55
2018-04-26T12:16:12.570Z,11.52
2018-04-26T12:17:12.551Z,11.44
2018-04-26T12:18:12.540Z,11.40
2018-04-26T12:19:12.521Z,11.43
2018-04-26T12:20:12.502Z,11.52
2018-04-26T12:21:12.482Z,11.55
2018-04-26T12:22:12.459Z,11.71
2018-04-26T12:23:12.441Z,13.60
2018-04-26T12:24:12.428Z,15.50
2018-04-26T12:25:12.409Z,16.28
2018-04-26T12:26:12.386Z,17.28
2018-04-26T12:27:12.369Z,18.12
2018-04-26T12:28:12.352Z,19.01
2018-04-26T12:29:12.400Z,19.07
2018-04-26T12:30:12.317Z,19.39
2018-04-26T12:31:12.302Z,20.19
2018-04-26T12:32:12.295Z,21.17
2018-04-26T12:33:12.287Z,20.34
2018-04-26T12:34:12.257Z,21.33
2018-04-26T12:35:12.274Z,19.52
2018-04-26T12:36:12.234Z,18.02
2018-04-26T12:37:12.221Z,18.13
2018-04-26T12:38:12.209Z,18.76
2018-04-26T12:39:12.215Z,17.68
2018-04-26T12:40:12.176Z,17.19
2018-04-26T12:41:12.165Z,16.86
2018-04-26T12:42:12.241Z,18.28
2018-04-26T12:43:12.138Z,20.21
2018-04-26T12:44:12.135Z,20.27
2018-04-26T12:45:12.120Z,21.17
2018-04-26T12:46:12.108Z,21.37
2018-04-26T12:47:12.112Z,21.96
2018-04-26T12:48:12.107Z,22.76
2018-04-26T12:49:12.118Z,23.04
2018-04-26T12:50:12.096Z,22.40
2018-04-26T12:51:12.058Z,22.89
2018-04-26T12:52:12.034Z,23.44
2018-04-26T12:53:12.032Z,22.89
2018-04-26T12:54:12.014Z,22.08
2018-04-26T12:55:12.031Z,22.08
2018-04-26T12:56:12.009Z,21.89
2018-04-26T12:57:11.993Z,21.77
2018-04-26T12:58:12.010Z,22.52
2018-04-26T12:59:11.982Z,23.23